Time;durP1;ratioP1;P1;durP2;ratioP2;P2;SDS_P1;SDS_P2;PMS_P1;PMS_P2;Temp;Humidity;BMP_temperature;BMP_pressure;BME280_temperature;BME280_humidity;BME280_pressure;Samples;Min_cycle;Max_cycle;Signal;HPM_P1;HPM_P2
2022/04/12 00:00:59;;;;;;;23.38;3.72;;;;;;;;;;4893814;29;20414;-68
2022/04/12 00:03:26;;;;;;;19.60;3.70;;;;;;;;;;4908367;29;20131;-69
2022/04/12 00:05:51;;;;;;;22.67;3.80;;;;;;;;;;4910580;29;20068;-68
2022/04/12 00:08:18;;;;;;;18.85;3.50;;;;;;;;;;4908226;29;20055;-69
2022/04/12 00:10:45;;;;;;;20.83;3.47;;;;;;;;;;4903190;29;20482;-67
2022/04/12 00:13:12;;;;;;;18.30;3.63;;;;;;;;;;4905837;29;20454;-70
2022/04/12 00:15:38;;;;;;;19.35;3.72;;;;;;;;;;4909188;29;20052;-68
2022/04/12 00:20:53;;;;;;;19.70;3.75;;;;;;;;;;4911591;29;20147;-69
2022/04/12 00:23:19;;;;;;;17.00;3.15;;;;;;;;;;4910868;29;20052;-68
2022/04/12 00:25:45;;;;;;;18.67;3.50;;;;;;;;;;4910491;29;20048;-70
2022/04/12 00:28:15;;;;;;;20.25;3.42;;;;;;;;;;4911718;29;20155;-68
2022/04/12 00:30:42;;;;;;;24.05;4.68;;;;;;;;;;4903769;29;20086;-67
2022/04/12 00:33:08;;;;;;;18.48;3.20;;;;;;;;;;4907508;29;20131;-70
2022/04/12 00:35:34;;;;;;;18.67;4.03;;;;;;;;;;4910532;29;20589;-67
2022/04/12 00:38:01;;;;;;;24.58;4.35;;;;;;;;;;4878574;29;20044;-71
2022/04/12 00:40:27;;;;;;;19.05;4.07;;;;;;;;;;4910054;29;20048;-69
2022/04/12 00:42:53;;;;;;;28.15;5.30;;;;;;;;;;4910148;29;20044;-70
2022/04/12 00:45:20;;;;;;;21.75;4.32;;;;;;;;;;4910187;29;20135;-69
2022/04/12 00:47:46;;;;;;;21.10;4.07;;;;;;;;;;4909488;29;20052;-69
2022/04/12 00:50:13;;;;;;;24.85;5.15;;;;;;;;;;4911613;29;20486;-69
2022/04/12 00:52:43;;;;;;;19.48;4.43;;;;;;;;;;4920670;29;20785;-69
2022/04/12 00:55:09;;;;;;;28.50;5.40;;;;;;;;;;4910013;29;20112;-68
2022/04/12 00:57:37;;;;;;;20.75;4.75;;;;;;;;;;4912380;29;20052;-67
2022/04/12 01:00:07;;;;;;;20.48;4.75;;;;;;;;;;4905991;29;20078;-70
2022/04/12 01:02:34;;;;;;;27.00;4.78;;;;;;;;;;4903206;29;20064;-69
2022/04/12 01:05:04;;;;;;;18.67;5.00;;;;;;;;;;4908622;29;20040;-68
2022/04/12 01:07:30;;;;;;;21.10;4.97;;;;;;;;;;4909626;29;20111;-69
2022/04/12 01:09:58;;;;;;;18.00;3.88;;;;;;;;;;4911919;29;20561;-67
2022/04/12 01:12:27;;;;;;;19.40;4.50;;;;;;;;;;4910011;29;20367;-69
2022/04/12 01:14:53;;;;;;;16.42;4.88;;;;;;;;;;4910137;29;20564;-69
2022/04/12 01:17:19;;;;;;;24.77;5.15;;;;;;;;;;4910699;29;20063;-70
2022/04/12 01:19:45;;;;;;;20.77;4.70;;;;;;;;;;4909339;29;20499;-68
2022/04/12 01:22:17;;;;;;;18.23;4.20;;;;;;;;;;4908946;29;20044;-69
2022/04/12 01:24:44;;;;;;;30.42;4.80;;;;;;;;;;4908446;29;20044;-68
2022/04/12 01:27:10;;;;;;;22.52;4.40;;;;;;;;;;4894428;29;20103;-68
2022/04/12 01:29:36;;;;;;;17.40;4.65;;;;;;;;;;4909769;29;20048;-69
2022/04/12 01:32:07;;;;;;;27.17;4.63;;;;;;;;;;4908952;29;20410;-68
2022/04/12 01:34:35;;;;;;;18.05;4.13;;;;;;;;;;4909407;29;20553;-68
2022/04/12 01:37:05;;;;;;;21.45;4.70;;;;;;;;;;4901317;29;20044;-69
2022/04/12 01:39:31;;;;;;;29.08;5.55;;;;;;;;;;4906652;29;20063;-68
2022/04/12 01:41:57;;;;;;;18.50;4.18;;;;;;;;;;4909799;29;20569;-70
2022/04/12 01:44:24;;;;;;;22.38;4.32;;;;;;;;;;4912214;29;20067;-69
2022/04/12 01:46:49;;;;;;;22.63;4.03;;;;;;;;;;4912690;29;20036;-69
2022/04/12 01:49:16;;;;;;;21.63;4.70;;;;;;;;;;4913593;29;20080;-67
2022/04/12 01:51:42;;;;;;;20.38;4.40;;;;;;;;;;4914373;29;20525;-70
2022/04/12 01:54:09;;;;;;;19.67;4.80;;;;;;;;;;4910764;29;20414;-68
2022/04/12 01:56:35;;;;;;;15.98;4.10;;;;;;;;;;4914112;29;20059;-68
2022/04/12 01:59:02;;;;;;;17.15;3.92;;;;;;;;;;4912506;29;20135;-69
2022/04/12 02:01:29;;;;;;;22.70;4.35;;;;;;;;;;4913160;29;20040;-67
2022/04/12 02:03:55;;;;;;;23.25;4.05;;;;;;;;;;4912930;29;20051;-70
2022/04/12 02:06:21;;;;;;;17.42;3.80;;;;;;;;;;4917127;29;20096;-68
2022/04/12 02:08:47;;;;;;;16.75;3.75;;;;;;;;;;4913390;29;20490;-68
2022/04/12 02:11:13;;;;;;;17.92;4.07;;;;;;;;;;4914674;29;20114;-68
2022/04/12 02:13:39;;;;;;;13.05;3.78;;;;;;;;;;4913342;29;20059;-68
2022/04/12 02:16:05;;;;;;;26.73;4.50;;;;;;;;;;4912257;29;20048;-68
2022/04/12 02:18:31;;;;;;;18.58;3.75;;;;;;;;;;4914693;29;20480;-69
2022/04/12 02:20:57;;;;;;;24.88;4.80;;;;;;;;;;4913183;29;20040;-69
2022/04/12 02:23:23;;;;;;;21.55;4.05;;;;;;;;;;4899701;29;20050;-68
2022/04/12 02:25:49;;;;;;;16.75;3.35;;;;;;;;;;4912856;29;20107;-69
2022/04/12 02:28:16;;;;;;;19.25;3.70;;;;;;;;;;4914614;29;20056;-67
2022/04/12 02:30:44;;;;;;;16.98;3.90;;;;;;;;;;4910453;29;20099;-71
2022/04/12 02:33:10;;;;;;;17.58;3.88;;;;;;;;;;4912866;29;20055;-68
2022/04/12 02:35:36;;;;;;;12.70;3.20;;;;;;;;;;4912853;29;20595;-68
2022/04/12 02:38:04;;;;;;;18.17;3.97;;;;;;;;;;4912297;29;20060;-68
2022/04/12 02:40:30;;;;;;;20.33;4.28;;;;;;;;;;4912229;29;20474;-69
2022/04/12 02:42:55;;;;;;;23.27;4.03;;;;;;;;;;4908904;29;20079;-72
2022/04/12 02:45:21;;;;;;;18.15;4.15;;;;;;;;;;4910994;29;20059;-68
2022/04/12 02:47:47;;;;;;;21.63;4.72;;;;;;;;;;4911498;29;20131;-69
2022/04/12 02:50:13;;;;;;;22.15;4.20;;;;;;;;;;4911953;29;20594;-69
2022/04/12 02:52:39;;;;;;;20.20;3.88;;;;;;;;;;4911407;29;20183;-67
2022/04/12 02:55:06;;;;;;;16.85;4.38;;;;;;;;;;4903657;29;20045;-68
2022/04/12 02:57:32;;;;;;;19.67;3.90;;;;;;;;;;4909678;29;20131;-68
2022/04/12 02:59:58;;;;;;;18.00;4.38;;;;;;;;;;4910230;29;20151;-68
2022/04/12 03:02:24;;;;;;;15.02;3.30;;;;;;;;;;4911557;29;20155;-68
2022/04/12 03:04:50;;;;;;;22.98;4.60;;;;;;;;;;4913053;29;20127;-67
2022/04/12 03:07:16;;;;;;;17.95;3.50;;;;;;;;;;4916853;29;20040;-68
2022/04/12 03:09:42;;;;;;;22.65;3.80;;;;;;;;;;4910698;29;20059;-67
2022/04/12 03:12:08;;;;;;;20.20;3.85;;;;;;;;;;4913980;29;20051;-68
2022/04/12 03:14:35;;;;;;;25.35;4.32;;;;;;;;;;4912625;29;20471;-69
2022/04/12 03:17:00;;;;;;;22.02;5.25;;;;;;;;;;4915298;29;20052;-69
2022/04/12 03:19:27;;;;;;;26.42;4.32;;;;;;;;;;4914041;29;20406;-68
2022/04/12 03:21:53;;;;;;;21.77;4.38;;;;;;;;;;4897286;29;20060;-68
2022/04/12 03:24:22;;;;;;;29.17;4.32;;;;;;;;;;4907722;29;20076;-68
2022/04/12 03:26:49;;;;;;;26.83;5.60;;;;;;;;;;4913765;29;20051;-67
2022/04/12 03:29:16;;;;;;;24.80;4.25;;;;;;;;;;4913951;29;20064;-69
2022/04/12 03:31:42;;;;;;;21.27;3.90;;;;;;;;;;4911572;29;20045;-67
2022/04/12 03:34:08;;;;;;;22.50;3.90;;;;;;;;;;4912531;29;20048;-68
2022/04/12 03:36:36;;;;;;;20.05;4.32;;;;;;;;;;4913257;29;20135;-69
2022/04/12 03:39:04;;;;;;;18.45;3.40;;;;;;;;;;4907707;29;20183;-69
2022/04/12 03:41:31;;;;;;;19.83;4.43;;;;;;;;;;4903838;29;20048;-68
2022/04/12 03:43:57;;;;;;;30.85;4.50;;;;;;;;;;4907856;29;20079;-67
2022/04/12 03:46:23;;;;;;;18.90;4.30;;;;;;;;;;4911197;29;20127;-68
2022/04/12 03:48:49;;;;;;;24.58;4.70;;;;;;;;;;4908813;29;20047;-69
2022/04/12 03:51:15;;;;;;;26.50;5.75;;;;;;;;;;4910031;29;20549;-67
2022/04/12 03:53:41;;;;;;;29.90;5.13;;;;;;;;;;4908803;29;20051;-68
2022/04/12 03:56:08;;;;;;;20.98;5.00;;;;;;;;;;4913403;29;20056;-67
2022/04/12 03:58:38;;;;;;;19.88;4.97;;;;;;;;;;4913041;29;20494;-70
2022/04/12 04:01:05;;;;;;;26.10;5.72;;;;;;;;;;4903090;29;20532;-68
2022/04/12 04:03:31;;;;;;;25.58;4.95;;;;;;;;;;4913238;29;20135;-68
2022/04/12 04:05:57;;;;;;;24.10;4.82;;;;;;;;;;4911560;29;20145;-68
2022/04/12 04:08:23;;;;;;;22.55;5.13;;;;;;;;;;4912756;29;20135;-69
2022/04/12 04:10:50;;;;;;;28.70;4.95;;;;;;;;;;4909943;29;20438;-68
2022/04/12 04:13:17;;;;;;;23.42;4.40;;;;;;;;;;4911415;29;20593;-68
2022/04/12 04:15:45;;;;;;;25.42;5.97;;;;;;;;;;4911396;29;20082;-68
2022/04/12 04:18:12;;;;;;;19.65;5.25;;;;;;;;;;4911612;29;20044;-69
2022/04/12 04:20:38;;;;;;;19.35;5.28;;;;;;;;;;4891423;29;20051;-68
2022/04/12 04:26:36;;;;;;;23.17;6.28;;;;;;;;;;4914251;29;20052;-68
2022/04/12 04:29:02;;;;;;;24.08;5.10;;;;;;;;;;4910864;29;20286;-67
2022/04/12 04:31:28;;;;;;;29.17;5.38;;;;;;;;;;4907858;29;20048;-69
2022/04/12 04:33:54;;;;;;;25.73;4.97;;;;;;;;;;4908263;29;20457;-69
2022/04/12 04:36:20;;;;;;;33.10;5.50;;;;;;;;;;4889182;29;20147;-70
2022/04/12 04:38:45;;;;;;;27.80;5.25;;;;;;;;;;4894779;29;20139;-68
2022/04/12 04:41:12;;;;;;;32.90;5.65;;;;;;;;;;4899505;29;20048;-68
2022/04/12 04:43:37;;;;;;;20.42;5.30;;;;;;;;;;4901749;29;20059;-70
2022/04/12 04:46:03;;;;;;;23.20;4.78;;;;;;;;;;4901530;29;20056;-69
2022/04/12 04:48:29;;;;;;;21.70;5.43;;;;;;;;;;4904210;29;20418;-67
2022/04/12 04:50:55;;;;;;;33.95;5.63;;;;;;;;;;4905300;29;20056;-68
2022/04/12 04:53:21;;;;;;;26.15;6.68;;;;;;;;;;4902266;29;20096;-71
2022/04/12 04:55:48;;;;;;;23.25;5.53;;;;;;;;;;4903320;29;20059;-69
2022/04/12 04:58:14;;;;;;;32.30;6.57;;;;;;;;;;4904356;29;20561;-69
2022/04/12 05:00:40;;;;;;;25.63;5.82;;;;;;;;;;4903484;29;20139;-67
2022/04/12 05:03:06;;;;;;;25.35;6.00;;;;;;;;;;4887406;29;20056;-68
2022/04/12 05:05:32;;;;;;;26.65;6.85;;;;;;;;;;4905338;29;20468;-69
2022/04/12 05:07:58;;;;;;;21.63;5.50;;;;;;;;;;4903719;29;20147;-68
2022/04/12 05:10:29;;;;;;;18.15;6.15;;;;;;;;;;4904794;29;20163;-68
2022/04/12 05:12:56;;;;;;;23.90;5.43;;;;;;;;;;4890534;29;20518;-70
2022/04/12 05:15:23;;;;;;;23.98;5.35;;;;;;;;;;4897713;29;20063;-70
2022/04/12 05:17:52;;;;;;;23.90;5.95;;;;;;;;;;4903011;29;20557;-69
2022/04/12 05:20:22;;;;;;;31.02;6.13;;;;;;;;;;4912123;29;20036;-71
2022/04/12 05:22:48;;;;;;;27.15;5.90;;;;;;;;;;4910726;29;20467;-70
2022/04/12 05:25:15;;;;;;;21.38;5.38;;;;;;;;;;4910791;29;20044;-68
2022/04/12 05:27:43;;;;;;;23.08;5.63;;;;;;;;;;4907057;29;20079;-70
2022/04/12 05:30:10;;;;;;;28.60;5.72;;;;;;;;;;4907354;29;20115;-71
2022/04/12 05:32:37;;;;;;;25.65;5.68;;;;;;;;;;4896819;29;20088;-68
2022/04/12 05:35:05;;;;;;;24.45;5.95;;;;;;;;;;4907981;29;20061;-70
2022/04/12 05:37:33;;;;;;;23.88;5.65;;;;;;;;;;4905326;29;20573;-69
2022/04/12 05:40:03;;;;;;;28.20;5.90;;;;;;;;;;4907647;29;20072;-70
2022/04/12 05:42:29;;;;;;;22.02;5.68;;;;;;;;;;4906839;29;20089;-71
2022/04/12 05:44:55;;;;;;;25.65;6.50;;;;;;;;;;4910677;29;20545;-68
2022/04/12 05:47:21;;;;;;;31.63;6.57;;;;;;;;;;4912240;29;20064;-73
2022/04/12 05:49:47;;;;;;;28.05;6.20;;;;;;;;;;4907210;29;20048;-71
2022/04/12 05:52:13;;;;;;;27.30;6.80;;;;;;;;;;4899396;29;20546;-71
2022/04/12 05:54:39;;;;;;;26.70;6.43;;;;;;;;;;4906136;29;20419;-70
2022/04/12 05:57:05;;;;;;;23.77;6.18;;;;;;;;;;4906367;29;20044;-69
2022/04/12 05:59:31;;;;;;;23.75;7.00;;;;;;;;;;4905325;29;20739;-71
2022/04/12 06:01:57;;;;;;;25.27;6.88;;;;;;;;;;4906105;29;20137;-73
2022/04/12 06:04:23;;;;;;;31.25;7.72;;;;;;;;;;4905518;29;20433;-68
2022/04/12 06:06:49;;;;;;;27.73;8.60;;;;;;;;;;4909745;29;20051;-70
2022/04/12 06:09:15;;;;;;;24.77;7.68;;;;;;;;;;4902537;29;20095;-69
2022/04/12 06:11:41;;;;;;;28.98;7.45;;;;;;;;;;4908517;29;20111;-69
2022/04/12 06:14:07;;;;;;;22.63;7.13;;;;;;;;;;4904289;29;21060;-68
2022/04/12 06:16:33;;;;;;;23.58;8.38;;;;;;;;;;4905030;29;20099;-70
2022/04/12 06:18:59;;;;;;;39.35;8.55;;;;;;;;;;4903845;29;20052;-68
2022/04/12 06:21:25;;;;;;;36.97;9.05;;;;;;;;;;4901343;29;20396;-70
2022/04/12 06:23:51;;;;;;;39.63;9.05;;;;;;;;;;4905093;29;20062;-71
2022/04/12 06:26:17;;;;;;;22.10;8.35;;;;;;;;;;4909258;29;20052;-70
2022/04/12 06:28:43;;;;;;;28.45;7.72;;;;;;;;;;4907643;29;20072;-72
2022/04/12 06:31:09;;;;;;;30.88;8.43;;;;;;;;;;4911934;29;20048;-70
2022/04/12 06:33:35;;;;;;;22.73;8.23;;;;;;;;;;4910160;29;20083;-68
2022/04/12 06:36:01;;;;;;;27.38;7.20;;;;;;;;;;4904704;29;20084;-69
2022/04/12 06:38:27;;;;;;;27.33;6.97;;;;;;;;;;4905848;29;20060;-73
2022/04/12 06:40:53;;;;;;;22.00;7.90;;;;;;;;;;4903131;29;20144;-69
2022/04/12 06:43:19;;;;;;;27.67;7.35;;;;;;;;;;4907713;29;20131;-68
2022/04/12 06:45:45;;;;;;;28.90;6.80;;;;;;;;;;4907261;29;20055;-68
2022/04/12 06:48:11;;;;;;;23.67;6.20;;;;;;;;;;4905393;29;20064;-70
2022/04/12 06:50:37;;;;;;;31.67;7.32;;;;;;;;;;4904141;29;20059;-66
2022/04/12 06:53:04;;;;;;;32.97;6.72;;;;;;;;;;4895730;29;20055;-69
2022/04/12 06:55:30;;;;;;;27.35;6.72;;;;;;;;;;4899742;29;20048;-69
2022/04/12 06:57:56;;;;;;;34.67;6.70;;;;;;;;;;4903737;29;20052;-72
2022/04/12 07:00:23;;;;;;;20.27;6.05;;;;;;;;;;4902738;29;20455;-71
2022/04/12 07:02:49;;;;;;;24.52;5.32;;;;;;;;;;4904026;29;20411;-71
2022/04/12 07:05:15;;;;;;;22.13;5.95;;;;;;;;;;4907600;29;20052;-72
2022/04/12 07:07:42;;;;;;;26.08;6.63;;;;;;;;;;4901229;29;20533;-71
2022/04/12 07:10:13;;;;;;;26.92;6.78;;;;;;;;;;4907309;29;20561;-70
2022/04/12 07:12:40;;;;;;;25.13;6.25;;;;;;;;;;4888202;29;20102;-73
2022/04/12 07:15:07;;;;;;;24.02;6.15;;;;;;;;;;4907452;29;20143;-72
2022/04/12 07:17:34;;;;;;;28.88;7.15;;;;;;;;;;4903632;29;20059;-71
2022/04/12 07:20:00;;;;;;;22.63;6.35;;;;;;;;;;4906931;29;20106;-72
2022/04/12 07:22:26;;;;;;;26.95;6.28;;;;;;;;;;4899080;29;20296;-71
2022/04/12 07:24:52;;;;;;;27.40;7.22;;;;;;;;;;4903285;29;20762;-72
2022/04/12 07:27:36;;;;;;;23.95;6.55;;;;;;;;;;4902716;29;20059;-72
2022/04/12 07:30:07;;;;;;;27.25;6.50;;;;;;;;;;4902721;29;20130;-71
2022/04/12 07:32:33;;;;;;;28.50;6.30;;;;;;;;;;4908419;29;21809;-71
2022/04/12 07:34:59;;;;;;;28.55;7.53;;;;;;;;;;4906141;29;20055;-71
2022/04/12 07:37:25;;;;;;;23.02;7.20;;;;;;;;;;4906230;29;20513;-72
2022/04/12 07:39:55;;;;;;;27.30;7.22;;;;;;;;;;4903162;29;20060;-69
2022/04/12 07:42:23;;;;;;;34.85;8.60;;;;;;;;;;4904725;29;20074;-70
2022/04/12 07:44:49;;;;;;;31.35;8.70;;;;;;;;;;4906265;29;20064;-71
2022/04/12 07:47:14;;;;;;;34.45;8.10;;;;;;;;;;4907865;29;20052;-71
2022/04/12 07:49:41;;;;;;;30.23;8.80;;;;;;;;;;4904468;29;20568;-74
2022/04/12 07:52:07;;;;;;;36.97;9.48;;;;;;;;;;4905871;29;20056;-72
2022/04/12 07:54:33;;;;;;;33.30;9.10;;;;;;;;;;4906806;29;20155;-71
2022/04/12 07:56:59;;;;;;;33.13;8.52;;;;;;;;;;4905644;29;20147;-71
2022/04/12 07:59:25;;;;;;;32.20;8.57;;;;;;;;;;4907263;29;20629;-72
2022/04/12 08:01:51;;;;;;;34.03;8.68;;;;;;;;;;4907318;29;20126;-72
2022/04/12 08:04:16;;;;;;;36.13;8.30;;;;;;;;;;4907865;29;20103;-71
2022/04/12 08:06:42;;;;;;;32.67;7.45;;;;;;;;;;4909166;29;20167;-72
2022/04/12 08:09:09;;;;;;;26.88;7.30;;;;;;;;;;4908262;29;20618;-70
2022/04/12 08:11:35;;;;;;;40.33;7.38;;;;;;;;;;4906027;29;20135;-72
2022/04/12 08:14:02;;;;;;;41.67;8.25;;;;;;;;;;4910299;29;20107;-73
2022/04/12 08:16:28;;;;;;;34.08;8.43;;;;;;;;;;4906498;29;20052;-72
2022/04/12 08:18:55;;;;;;;29.40;7.80;;;;;;;;;;4903692;29;20048;-71
2022/04/12 08:21:32;;;;;;;31.10;6.95;;;;;;;;;;4888960;29;20126;-71
2022/04/12 08:23:58;;;;;;;36.88;8.57;;;;;;;;;;4902992;29;20052;-71
2022/04/12 08:26:24;;;;;;;34.42;8.10;;;;;;;;;;4904247;29;20506;-72
2022/04/12 08:28:50;;;;;;;33.33;7.95;;;;;;;;;;4902354;29;20054;-72
2022/04/12 08:31:16;;;;;;;37.92;9.55;;;;;;;;;;4904869;29;20888;-73
2022/04/12 08:33:42;;;;;;;22.30;7.60;;;;;;;;;;4905644;29;20060;-73
2022/04/12 08:36:08;;;;;;;26.10;7.78;;;;;;;;;;4902143;29;20422;-73
2022/04/12 08:38:34;;;;;;;34.10;8.32;;;;;;;;;;4903866;29;20621;-71
2022/04/12 08:41:02;;;;;;;28.98;8.07;;;;;;;;;;4904328;29;20052;-71
2022/04/12 08:43:29;;;;;;;40.90;10.02;;;;;;;;;;4903438;29;20123;-71
2022/04/12 08:45:56;;;;;;;36.70;8.80;;;;;;;;;;4904638;29;20407;-71
2022/04/12 08:48:23;;;;;;;33.55;8.75;;;;;;;;;;4901236;29;20509;-70
2022/04/12 08:50:49;;;;;;;34.88;8.32;;;;;;;;;;4906352;29;20138;-70
2022/04/12 08:53:17;;;;;;;40.45;8.63;;;;;;;;;;4900895;29;20059;-72
2022/04/12 08:55:43;;;;;;;31.95;8.85;;;;;;;;;;4897626;29;20052;-72
2022/04/12 08:58:09;;;;;;;34.42;9.95;;;;;;;;;;4885777;29;20417;-72
2022/04/12 09:00:35;;;;;;;32.67;8.63;;;;;;;;;;4903612;29;20060;-70
2022/04/12 09:03:03;;;;;;;37.40;8.57;;;;;;;;;;4906795;29;20051;-71
2022/04/12 09:05:32;;;;;;;28.77;9.10;;;;;;;;;;4906501;29;20048;-71
2022/04/12 09:07:59;;;;;;;34.42;9.02;;;;;;;;;;4903733;29;20048;-72
2022/04/12 09:10:36;;;;;;;32.70;8.27;;;;;;;;;;4905224;29;20153;-70
2022/04/12 09:13:12;;;;;;;31.50;7.68;;;;;;;;;;4900875;29;20063;-71
2022/04/12 09:15:45;;;;;;;25.73;8.90;;;;;;;;;;4910406;29;20070;-70
2022/04/12 09:18:11;;;;;;;40.05;7.72;;;;;;;;;;4888581;29;20054;-72
2022/04/12 09:20:38;;;;;;;37.70;7.50;;;;;;;;;;4905741;29;20067;-71
2022/04/12 09:23:14;;;;;;;34.40;7.18;;;;;;;;;;4888517;29;20091;-72
2022/04/12 09:25:53;;;;;;;40.17;7.55;;;;;;;;;;4900739;29;20052;-71
2022/04/12 09:28:19;;;;;;;47.78;7.32;;;;;;;;;;4906694;29;20048;-72
2022/04/12 09:30:45;;;;;;;30.58;6.13;;;;;;;;;;4906827;29;20060;-71
2022/04/12 09:33:11;;;;;;;31.02;6.15;;;;;;;;;;4904459;29;20171;-72
2022/04/12 09:35:38;;;;;;;35.63;6.55;;;;;;;;;;4905924;29;20064;-71
2022/04/12 09:38:04;;;;;;;39.20;6.88;;;;;;;;;;4885471;29;20494;-71
2022/04/12 09:40:30;;;;;;;39.60;7.57;;;;;;;;;;4884398;29;20048;-72
2022/04/12 09:43:05;;;;;;;36.33;6.07;;;;;;;;;;4880195;29;20074;-71
2022/04/12 09:45:33;;;;;;;33.67;6.68;;;;;;;;;;4885863;29;20057;-70
2022/04/12 09:48:08;;;;;;;31.45;5.53;;;;;;;;;;4887014;29;20096;-71
2022/04/12 09:50:35;;;;;;;39.72;5.97;;;;;;;;;;4886975;29;20052;-71
2022/04/12 09:53:10;;;;;;;36.58;6.10;;;;;;;;;;4882521;29;20135;-74
2022/04/12 09:55:44;;;;;;;41.80;7.45;;;;;;;;;;4884423;29;20567;-70
2022/04/12 09:58:16;;;;;;;38.58;5.63;;;;;;;;;;4887812;29;20124;-73
2022/04/12 10:00:43;;;;;;;40.85;5.65;;;;;;;;;;4887179;29;20672;-73
2022/04/12 10:03:11;;;;;;;36.95;6.05;;;;;;;;;;4882706;29;20061;-71
2022/04/12 10:05:38;;;;;;;40.50;5.53;;;;;;;;;;4890430;29;20928;-71
2022/04/12 10:08:06;;;;;;;53.35;6.35;;;;;;;;;;4889365;29;20052;-71
2022/04/12 10:10:32;;;;;;;45.58;6.35;;;;;;;;;;4889060;29;20076;-71
2022/04/12 10:12:59;;;;;;;40.05;5.50;;;;;;;;;;4884398;29;20514;-71
2022/04/12 10:15:27;;;;;;;42.47;5.30;;;;;;;;;;4899160;29;20057;-71
2022/04/12 10:17:55;;;;;;;51.88;5.05;;;;;;;;;;4887458;29;20068;-73
2022/04/12 10:20:22;;;;;;;41.88;5.20;;;;;;;;;;4891246;29;20052;-72
2022/04/12 10:22:50;;;;;;;45.90;5.72;;;;;;;;;;4889269;29;20056;-72
2022/04/12 10:25:23;;;;;;;42.28;5.65;;;;;;;;;;4888576;29;20625;-72
2022/04/12 10:27:55;;;;;;;40.37;5.83;;;;;;;;;;4887873;29;20095;-71
2022/04/12 10:30:29;;;;;;;48.85;5.38;;;;;;;;;;4890333;29;20954;-72
2022/04/12 10:33:06;;;;;;;41.50;5.18;;;;;;;;;;4886978;29;20491;-74
2022/04/12 10:35:44;;;;;;;36.70;5.13;;;;;;;;;;4899296;29;20542;-71
2022/04/12 10:38:21;;;;;;;40.30;5.30;;;;;;;;;;4896842;29;20056;-73
2022/04/12 10:40:51;;;;;;;44.63;5.25;;;;;;;;;;4907851;29;20595;-73
2022/04/12 10:43:33;;;;;;;40.13;4.95;;;;;;;;;;4885279;29;20518;-73
2022/04/12 10:46:01;;;;;;;44.20;5.75;;;;;;;;;;4903614;29;20147;-72
2022/04/12 10:48:29;;;;;;;39.72;5.97;;;;;;;;;;4902738;29;20078;-73
2022/04/12 10:50:56;;;;;;;39.35;5.63;;;;;;;;;;4907438;29;20395;-73
2022/04/12 10:53:37;;;;;;;39.58;5.00;;;;;;;;;;4905257;29;20044;-73
2022/04/12 10:56:11;;;;;;;42.67;5.53;;;;;;;;;;4905483;29;20052;-74
2022/04/12 10:58:38;;;;;;;48.90;6.55;;;;;;;;;;4906141;29;20060;-74
2022/04/12 11:01:08;;;;;;;46.10;5.90;;;;;;;;;;4900925;29;20127;-72
2022/04/12 11:03:40;;;;;;;44.10;6.88;;;;;;;;;;4904969;29;20059;-73
2022/04/12 11:06:33;;;;;;;45.40;6.05;;;;;;;;;;4902672;29;20701;-74
2022/04/12 11:09:11;;;;;;;29.08;4.88;;;;;;;;;;4885807;29;20059;-72
2022/04/12 11:11:40;;;;;;;48.35;5.65;;;;;;;;;;4907567;29;20053;-76
2022/04/12 11:14:23;;;;;;;36.28;5.53;;;;;;;;;;4906289;29;20111;-74
2022/04/12 11:16:53;;;;;;;42.67;5.43;;;;;;;;;;4909876;29;20048;-74
2022/04/12 11:19:21;;;;;;;40.85;5.95;;;;;;;;;;4910598;29;20408;-72
2022/04/12 11:21:51;;;;;;;39.28;6.22;;;;;;;;;;4910406;29;20052;-73
2022/04/12 11:24:21;;;;;;;54.47;6.28;;;;;;;;;;4906071;29;20055;-75
2022/04/12 11:27:08;;;;;;;43.97;6.15;;;;;;;;;;4909185;29;20358;-76
2022/04/12 11:29:36;;;;;;;42.83;5.95;;;;;;;;;;4901386;29;20407;-73
2022/04/12 11:32:02;;;;;;;41.50;5.30;;;;;;;;;;4883523;29;20454;-74
2022/04/12 11:34:30;;;;;;;41.80;5.63;;;;;;;;;;4903397;29;20040;-74
2022/04/12 11:36:58;;;;;;;42.67;5.70;;;;;;;;;;4890700;29;20048;-75
2022/04/12 11:39:26;;;;;;;43.85;5.47;;;;;;;;;;4896382;29;20118;-74
2022/04/12 11:41:57;;;;;;;40.55;6.68;;;;;;;;;;4906591;29;20048;-73
2022/04/12 11:44:23;;;;;;;37.95;5.30;;;;;;;;;;4902969;29;20086;-74
2022/04/12 11:47:02;;;;;;;51.03;6.45;;;;;;;;;;4902555;29;20151;-69
2022/04/12 11:49:31;;;;;;;33.15;5.07;;;;;;;;;;4902428;29;20539;-68
2022/04/12 11:52:02;;;;;;;47.15;6.57;;;;;;;;;;4905801;29;20044;-74
2022/04/12 11:54:31;;;;;;;36.08;5.45;;;;;;;;;;4905359;29;20072;-71
2022/04/12 11:57:15;;;;;;;46.95;6.13;;;;;;;;;;4908018;29;20047;-66
2022/04/12 11:59:51;;;;;;;35.20;5.72;;;;;;;;;;4901585;29;20057;-69
2022/04/12 12:02:25;;;;;;;43.10;5.65;;;;;;;;;;4903985;29;20146;-68
2022/04/12 12:04:57;;;;;;;38.95;6.68;;;;;;;;;;4907653;29;20167;-67
2022/04/12 12:07:25;;;;;;;38.17;6.18;;;;;;;;;;4904329;29;20047;-72
2022/04/12 12:10:03;;;;;;;40.50;5.95;;;;;;;;;;4901273;29;20056;-70
2022/04/12 12:12:46;;;;;;;49.80;6.72;;;;;;;;;;4898693;29;20506;-72
2022/04/12 12:15:16;;;;;;;38.50;6.38;;;;;;;;;;4898589;29;20107;-70
2022/04/12 12:17:46;;;;;;;35.00;6.40;;;;;;;;;;4904504;29;20052;-71
2022/04/12 12:20:13;;;;;;;54.95;6.13;;;;;;;;;;4906920;29;20044;-72
2022/04/12 12:22:42;;;;;;;40.75;6.10;;;;;;;;;;4887875;29;20056;-73
2022/04/12 12:25:10;;;;;;;53.45;6.97;;;;;;;;;;4904017;29;20724;-72
2022/04/12 12:27:38;;;;;;;38.22;5.75;;;;;;;;;;4911808;29;20040;-72
2022/04/12 12:30:14;;;;;;;43.55;5.78;;;;;;;;;;4905931;29;20063;-72
2022/04/12 12:32:42;;;;;;;48.08;7.28;;;;;;;;;;4903104;29;20135;-70
2022/04/12 12:35:16;;;;;;;41.97;6.20;;;;;;;;;;4903083;29;20402;-70
2022/04/12 12:37:43;;;;;;;42.30;6.18;;;;;;;;;;4881811;29;20075;-70
2022/04/12 12:40:22;;;;;;;44.85;6.13;;;;;;;;;;4901516;29;20064;-74
2022/04/12 12:42:50;;;;;;;48.67;6.75;;;;;;;;;;4901470;29;20529;-71
2022/04/12 12:45:20;;;;;;;35.22;7.45;;;;;;;;;;4905983;29;20048;-71
2022/04/12 12:47:49;;;;;;;36.55;6.40;;;;;;;;;;4898187;29;20499;-72
2022/04/12 12:50:17;;;;;;;39.90;5.90;;;;;;;;;;4886452;29;20110;-71
2022/04/12 12:52:43;;;;;;;34.92;6.72;;;;;;;;;;4905915;29;20056;-75
2022/04/12 12:55:30;;;;;;;42.65;6.00;;;;;;;;;;4905426;29;20056;-70
2022/04/12 12:58:09;;;;;;;40.80;6.05;;;;;;;;;;4900157;29;20554;-72
2022/04/12 13:00:36;;;;;;;46.38;6.60;;;;;;;;;;4899129;29;20494;-73
2022/04/12 13:03:03;;;;;;;49.17;6.05;;;;;;;;;;4902907;29;20044;-70
2022/04/12 13:05:29;;;;;;;46.35;5.90;;;;;;;;;;4906308;29;20063;-71
2022/04/12 13:07:57;;;;;;;43.05;6.22;;;;;;;;;;4902582;29;20044;-75
2022/04/12 13:10:24;;;;;;;36.72;6.38;;;;;;;;;;4908502;29;20048;-72
2022/04/12 13:12:50;;;;;;;57.55;6.70;;;;;;;;;;4906345;29;20573;-71
2022/04/12 13:15:16;;;;;;;49.53;5.68;;;;;;;;;;4905110;29;20048;-72
2022/04/12 13:17:42;;;;;;;44.47;5.90;;;;;;;;;;4899455;29;20517;-72
2022/04/12 13:20:11;;;;;;;47.83;6.47;;;;;;;;;;4901729;29;20099;-73
2022/04/12 13:22:37;;;;;;;49.20;6.10;;;;;;;;;;4903408;29;20088;-72
2022/04/12 13:25:05;;;;;;;36.05;5.88;;;;;;;;;;4903819;29;20131;-73
2022/04/12 13:27:31;;;;;;;43.40;5.53;;;;;;;;;;4906970;29;20052;-72
2022/04/12 13:29:57;;;;;;;35.63;5.88;;;;;;;;;;4903826;29;20075;-72
2022/04/12 13:32:23;;;;;;;43.65;6.07;;;;;;;;;;4903199;29;20056;-73
2022/04/12 13:34:50;;;;;;;33.78;6.35;;;;;;;;;;4903940;29;20195;-72
2022/04/12 13:37:16;;;;;;;37.53;6.10;;;;;;;;;;4899380;29;20047;-72
2022/04/12 13:39:42;;;;;;;31.95;5.53;;;;;;;;;;4902718;29;20449;-73
2022/04/12 13:42:09;;;;;;;56.67;12.18;;;;;;;;;;4913581;29;20044;-71
2022/04/12 13:44:35;;;;;;;45.65;6.70;;;;;;;;;;4909875;29;20699;-73
2022/04/12 13:47:04;;;;;;;41.63;5.75;;;;;;;;;;4890081;29;20148;-72
2022/04/12 13:49:31;;;;;;;42.50;6.50;;;;;;;;;;4904867;29;20044;-71
2022/04/12 13:51:58;;;;;;;46.70;6.43;;;;;;;;;;4915788;29;20050;-73
2022/04/12 13:54:26;;;;;;;40.65;6.35;;;;;;;;;;4909377;29;20131;-74
2022/04/12 13:56:52;;;;;;;38.08;5.57;;;;;;;;;;4908167;29;20068;-72
2022/04/12 13:59:18;;;;;;;42.28;6.47;;;;;;;;;;4902735;29;20052;-70
2022/04/12 14:01:44;;;;;;;41.55;5.95;;;;;;;;;;4907956;29;20064;-71
2022/04/12 14:04:10;;;;;;;31.70;5.45;;;;;;;;;;4905906;29;20529;-74
2022/04/12 14:06:36;;;;;;;40.17;6.30;;;;;;;;;;4907224;29;20055;-73
2022/04/12 14:09:04;;;;;;;32.92;5.43;;;;;;;;;;4905965;29;20100;-74
2022/04/12 14:11:30;;;;;;;50.17;6.15;;;;;;;;;;4907364;29;20051;-74
2022/04/12 14:13:55;;;;;;;40.97;6.35;;;;;;;;;;4907667;29;20056;-72
2022/04/12 14:16:22;;;;;;;37.17;5.63;;;;;;;;;;4906139;29;20134;-73
2022/04/12 14:18:48;;;;;;;41.75;5.97;;;;;;;;;;4908160;29;20127;-74
2022/04/12 14:21:14;;;;;;;40.13;6.53;;;;;;;;;;4906013;29;20052;-73
2022/04/12 14:23:44;;;;;;;40.35;6.80;;;;;;;;;;4907113;29;20392;-74
2022/04/12 14:26:11;;;;;;;30.20;5.50;;;;;;;;;;4906591;29;20188;-74
2022/04/12 14:28:38;;;;;;;29.33;5.90;;;;;;;;;;4906643;29;20063;-72
2022/04/12 14:31:06;;;;;;;34.42;5.40;;;;;;;;;;4910288;29;20056;-72
2022/04/12 14:33:33;;;;;;;40.35;6.50;;;;;;;;;;4905232;29;20044;-75
2022/04/12 14:35:59;;;;;;;35.92;4.75;;;;;;;;;;4901388;29;20067;-73
2022/04/12 14:38:27;;;;;;;36.08;5.82;;;;;;;;;;4904543;29;20040;-73
2022/04/12 14:40:56;;;;;;;33.78;6.40;;;;;;;;;;4910601;29;20127;-71